Aegean Pride — ELXK8 — position and weather

sailwx.info

Track history (hours):
 
Tides and Currents Weather Stations Pressure Air Temp Water Temp Dewpoint Dewpoint Depression Visibility Wind Speed Wind Dir Waves Ship Positions

Aegean Pride

Last reported at 2014-Sep-17 16:13 UTC. Time now 2014-Sep-18 01:39 UTC.
Position N 39°07' E 014°06'.

; draft 8.2 m.

Type: Ship. MMSI: 636011186.

Date/timePositionNaut miles runAvg speedWind from/ knotsBaromVisibWave heightAir tempDewpointWater temp
2014-Sep-17 16:13N 39°07' E 014°06'812.1
2014-Sep-17 15:33N 39°10' E 013°56'1212.0
2014-Sep-17 14:33N 39°15' E 013°42'1212.0
2014-Sep-17 13:32N 39°21' E 013°28'29411.7
2014-Sep-16 12:30N 43°13' E 009°30'1112.0
2014-Sep-16 11:33N 43°24' E 009°25'1211.7
2014-Sep-16 10:33N 43°35' E 009°19'1212.0
2014-Sep-16 09:33N 43°47' E 009°14'1211.9
2014-Sep-16 08:33N 43°57' E 009°06'1211.9
2014-Sep-16 07:33N 44°07' E 008°58'1211.9
2014-Sep-16 06:33N 44°18' E 008°49'8 7.3
2014-Sep-16 05:31N 44°25' E 008°50'0 0.0
2014-Sep-15 18:22N 44°25' E 008°50'0 0.0
2014-Sep-15 01:13N 44°25' E 008°50'0 0.0
2014-Sep-14 07:23N 44°25' E 008°50'2 2.2
2014-Sep-14 06:33N 44°24' E 008°48'4 4.5
2014-Sep-14 05:33N 44°20' E 008°50'1111.2
2014-Sep-14 04:33N 44°10' E 008°58'1111.4
2014-Sep-14 03:33N 44°00' E 009°05'1111.0
2014-Sep-14 02:33N 43°50' E 009°12'1110.9
2014-Sep-14 01:33N 43°40' E 009°17'6911.5
2014-Sep-13 19:33N 42°35' E 009°48'2411.6
2014-Sep-13 17:31N 42°13' E 009°58'1111.5
2014-Sep-13 16:33N 42°02' E 010°02'35610.7
2014-Sep-12 07:24N 36°37' E 013°09'1011.3
2014-Sep-12 06:33N 36°29' E 013°17'1111.0
2014-Sep-12 05:33N 36°21' E 013°27'1111.1
2014-Sep-12 04:33N 36°13' E 013°36'1111.2
2014-Sep-12 03:33N 36°05' E 013°45'1111.3
2014-Sep-12 02:33N 35°56' E 013°54'  
Track history (hours):
 
Tides and Currents Weather Stations Pressure Air Temp Water Temp Dewpoint Dewpoint Depression Visibility Wind Speed Wind Dir Waves Ship Positions

Aegean Pride

Last reported at 2014-Sep-17 16:13 UTC. Time now 2014-Sep-18 01:39 UTC.
Position N 39°07' E 014°06'.

; draft 8.2 m.

Type: Ship. MMSI: 636011186.

Date/timePositionNaut miles runAvg speedWind from/ knotsBaromVisibWave heightAir tempDewpointWater temp
2014-Sep-17 16:13N 39°07' E 014°06'812.1
2014-Sep-17 15:33N 39°10' E 013°56'1212.0
2014-Sep-17 14:33N 39°15' E 013°42'1212.0
2014-Sep-17 13:32N 39°21' E 013°28'29411.7
2014-Sep-16 12:30N 43°13' E 009°30'1112.0
2014-Sep-16 11:33N 43°24' E 009°25'1211.7
2014-Sep-16 10:33N 43°35' E 009°19'1212.0
2014-Sep-16 09:33N 43°47' E 009°14'1211.9
2014-Sep-16 08:33N 43°57' E 009°06'1211.9
2014-Sep-16 07:33N 44°07' E 008°58'1211.9
2014-Sep-16 06:33N 44°18' E 008°49'8 7.3
2014-Sep-16 05:31N 44°25' E 008°50'0 0.0
2014-Sep-15 18:22N 44°25' E 008°50'0 0.0
2014-Sep-15 01:13N 44°25' E 008°50'0 0.0
2014-Sep-14 07:23N 44°25' E 008°50'2 2.2
2014-Sep-14 06:33N 44°24' E 008°48'4 4.5
2014-Sep-14 05:33N 44°20' E 008°50'1111.2
2014-Sep-14 04:33N 44°10' E 008°58'1111.4
2014-Sep-14 03:33N 44°00' E 009°05'1111.0
2014-Sep-14 02:33N 43°50' E 009°12'1110.9
2014-Sep-14 01:33N 43°40' E 009°17'6911.5
2014-Sep-13 19:33N 42°35' E 009°48'2411.6
2014-Sep-13 17:31N 42°13' E 009°58'1111.5
2014-Sep-13 16:33N 42°02' E 010°02'35610.7
2014-Sep-12 07:24N 36°37' E 013°09'1011.3
2014-Sep-12 06:33N 36°29' E 013°17'1111.0
2014-Sep-12 05:33N 36°21' E 013°27'1111.1
2014-Sep-12 04:33N 36°13' E 013°36'1111.2
2014-Sep-12 03:33N 36°05' E 013°45'1111.3
2014-Sep-12 02:33N 35°56' E 013°54'  

Dump ship's entire track history